Latest Weather Observations for Hobart

IDT60801

Issued at 11:02 pm EST Wednesday 1 July 2015 (issued every 30 minutes, with the page automatically refreshed every 10 minutes)

About weather observations | Map of weather stations | Latest weather observations for TAS | Other Formats
Station Details ID: 094029 Name: HOBART (ELLERSLIE ROAD) Lat: -42.89 Lon: 147.33 Height: 50.5 m
Data from the previous 72 hours. | See also: Recent months at Hobart
Date/Time
EST
Temp
°C
App
Temp
°C
Dew
Point
Rel
Hum
%
Delta-T
°C
Wind Press
QNH
hPa
Press
MSL
hPa
Rain
since 9 am
mm
Dir
 
Spd
km/h
Gust
km/h
Spd
kts
Gust
kts
01/11:00pm 7.6 0.3 2.6 70 2.1 NW 30 48 16 26 1005.1 1005.2 1.2
01/10:32pm 7.6 -0.1 2.1 68 2.3 NW 32 52 17 28 1004.7 1004.8 1.2
01/10:30pm 7.5 0.2 2.2 69 2.2 NW 30 44 16 24 1004.8 1004.9 1.2
01/10:00pm 8.1 -1.3 2.1 66 2.5 NW 41 61 22 33 1005.5 1005.6 1.2
01/09:40pm 8.3 -0.6 0.6 58 3.1 NW 37 56 20 30 1004.9 1005.0 1.0
01/09:30pm 8.4 -0.2 0.4 57 3.2 NW 35 48 19 26 1004.9 1005.0 1.0
01/09:21pm 8.6 0.6 0.4 56 3.3 NW 32 46 17 25 1005.1 1005.2 1.0
01/09:00pm 10.3 0.9 -2.9 39 5.0 WNW 37 69 20 37 1005.1 1005.2 1.0
01/08:33pm 9.3 3.9 1.0 56 3.4 NNW 19 52 10 28 1006.3 1006.4 1.0
01/08:30pm 9.0 4.7 3.5 68 2.4 NNW 15 35 8 19 1006.7 1006.8 1.0
01/08:00pm 9.1 3.9 5.4 77 1.7 SW 22 39 12 21 1005.9 1006.0 0.4
01/07:31pm 12.5 4.9 3.9 56 3.9 WNW 33 52 18 28 1004.4 1004.5 0.0
01/07:30pm 12.6 4.5 3.5 54 4.1 WNW 35 52 19 28 1004.3 1004.4 0.0
01/07:00pm 12.5 3.5 2.5 50 4.4 NW 39 61 21 33 1003.0 1003.1 0.0
01/06:30pm 12.3 4.0 1.9 49 4.5 NNW 35 54 19 29 1003.2 1003.3 0.0
01/06:00pm 12.5 3.1 2.2 49 4.5 NW 41 61 22 33 1004.6 1004.7 0.0
01/05:30pm 12.6 3.6 2.3 49 4.5 NW 39 67 21 36 1005.3 1005.4 0.0
01/05:00pm 12.8 5.0 2.0 48 4.7 NW 32 59 17 32 1006.4 1006.5 0.0
01/04:32pm 12.8 5.9 2.3 49 4.6 NW 28 50 15 27 1007.1 1007.2 0.0
01/04:30pm 12.8 6.6 2.3 49 4.6 NW 24 50 13 27 1007.0 1007.1 0.0
01/04:00pm 12.5 5.8 3.6 54 4.0 NW 28 52 15 28 1007.8 1007.9 0.0
01/03:36pm 12.7 5.0 3.6 54 4.1 NW 33 61 18 33 1008.5 1008.7 0.0
01/03:30pm 12.9 5.4 3.6 53 4.2 NW 32 48 17 26 1008.7 1008.9 0.0
01/03:13pm 13.5 6.8 3.8 52 4.4 NNW 28 46 15 25 1009.1 1009.3 0.0
01/03:00pm 13.4 6.0 4.0 53 4.3 NNW 32 46 17 25 1009.3 1009.5 0.0
01/02:43pm 13.3 6.6 3.8 52 4.3 NW 28 52 15 28 1009.4 1009.6 0.0
01/02:30pm 13.3 6.7 4.1 53 4.2 NW 28 41 15 22 1009.8 1010.0 0.0
01/02:09pm 13.9 5.8 3.5 49 4.7 NW 35 56 19 30 1010.1 1010.3 0.0
01/02:00pm 14.1 6.6 3.5 49 4.8 NW 32 48 17 26 1010.4 1010.5 0.0
01/01:37pm 13.4 6.7 3.4 50 4.5 NNW 28 46 15 25 1010.8 1010.9 0.0
01/01:30pm 13.2 6.8 3.4 51 4.4 NNW 26 43 14 23 1011.0 1011.1 0.0
01/01:00pm 12.7 7.5 3.6 54 4.1 NW 20 37 11 20 1012.0 1012.1 0.0
01/12:58pm 12.7 7.5 3.6 54 4.1 NW 20 37 11 20 1012.1 1012.2 0.0
01/12:30pm 12.2 8.4 4.0 57 3.7 NNW 13 19 7 10 1013.1 1013.2 0.0
01/12:00pm 11.9 8.5 3.9 58 3.6 NW 11 19 6 10 1014.1 1014.2 0.0
01/11:30am 11.5 8.1 4.2 61 3.3 NW 11 17 6 9 1015.1 1015.2 0.0
01/11:00am 11.1 7.7 4.2 62 3.1 NNW 11 20 6 11 1016.1 1016.2 0.0
01/10:30am 10.4 7.7 3.8 63 2.9 NNE 7 13 4 7 1017.0 1017.1 0.0
01/10:00am 9.8 6.3 3.6 65 2.7 N 11 15 6 8 1017.7 1017.8 0.0
01/09:30am 9.6 6.5 3.6 66 2.6 N 9 13 5 7 1018.1 1018.2 0.0
01/09:00am 8.8 4.1 3.2 68 2.4 N 17 22 9 12 1018.5 1018.6 0.0
01/08:30am 7.6 4.0 3.1 73 1.9 N 11 15 6 8 1018.9 1019.0 0.0
01/08:00am 7.0 3.8 2.9 75 1.7 N 9 13 5 7 1018.8 1018.9 0.0
01/07:30am 6.2 2.9 2.5 77 1.5 N 9 15 5 8 1019.1 1019.2 0.0
01/07:00am 6.3 2.6 2.4 76 1.6 NW 11 19 6 10 1019.2 1019.3 0.0
01/06:30am 7.2 2.7 2.4 71 2.0 NW 15 28 8 15 1019.1 1019.2 0.0
01/06:00am 7.0 2.6 2.7 74 1.8 NNE 15 22 8 12 1019.3 1019.4 0.0
01/05:30am 7.0 1.6 2.4 72 1.9 N 20 28 11 15 1019.7 1019.8 0.0
01/05:00am 7.4 1.2 2.0 68 2.2 N 24 30 13 16 1020.1 1020.2 0.0
01/04:30am 7.5 0.1 1.9 67 2.3 N 30 43 16 23 1020.1 1020.2 0.0
01/04:00am 7.6 -0.2 2.0 67 2.3 N 32 41 17 22 1020.1 1020.2 0.0
01/03:30am 7.2 0.2 2.1 70 2.1 NNW 28 35 15 19 1020.7 1020.8 0.0
01/03:00am 7.4 0.8 2.3 70 2.1 NNW 26 41 14 22 1021.0 1021.1 0.0
01/02:30am 7.6 0.3 2.6 70 2.1 N 30 39 16 21 1021.2 1021.3 0.0
01/02:00am 8.0 1.1 2.8 70 2.2 N 28 37 15 20 1021.5 1021.6 0.0
01/01:30am 7.9 1.8 2.6 69 2.2 NNW 24 32 13 17 1021.8 1021.9 0.0
01/01:00am 7.9 2.3 3.2 72 2.0 NNW 22 28 12 15 1022.3 1022.4 0.0
01/12:30am 8.1 2.8 3.1 71 2.1 NNW 20 28 11 15 1022.5 1022.6 0.0
01/12:00am 7.8 2.6 3.6 75 1.8 NNW 20 24 11 13 1022.7 1022.8 0.0
 
Date/Time
EST
Temp
°C
App
Temp
°C
Dew
Point
Rel
Hum
%
Delta-T
°C
Wind Press
QNH
hPa
Press
MSL
hPa
Rain
since 9 am
mm
Dir
 
Spd
km/h
Gust
km/h
Spd
kts
Gust
kts
30/11:30pm 8.7 3.7 3.6 70 2.2 NNW 19 22 10 12 1023.1 1023.2 0.0
30/11:00pm 8.6 2.6 3.5 70 2.2 NNW 24 32 13 17 1023.0 1023.1 0.0
30/10:30pm 9.0 3.8 3.7 69 2.3 NW 20 28 11 15 1023.3 1023.4 0.0
30/10:00pm 9.0 4.4 3.9 70 2.2 N 17 26 9 14 1023.5 1023.6 0.0
30/09:30pm 9.4 4.8 3.9 68 2.4 NW 17 22 9 12 1023.5 1023.6 0.0
30/09:00pm 9.8 4.6 3.6 65 2.7 NW 20 28 11 15 1023.5 1023.6 0.0
30/08:30pm 9.5 5.7 4.0 68 2.4 NW 13 19 7 10 1023.6 1023.7 0.0
30/08:00pm 10.5 5.8 3.4 61 3.1 NNW 17 20 9 11 1023.5 1023.6 0.0
30/07:30pm 10.2 5.9 3.3 62 3.0 NW 15 19 8 10 1023.6 1023.7 0.0
30/07:00pm 10.9 6.6 3.1 58 3.4 NNW 15 22 8 12 1023.5 1023.6 0.0
30/06:30pm 11.0 6.3 3.2 58 3.4 NW 17 24 9 13 1023.3 1023.4 0.0
30/06:00pm 11.2 6.9 3.2 58 3.5 NW 15 24 8 13 1023.3 1023.4 0.0
30/05:30pm 11.6 6.3 3.1 56 3.7 NW 20 28 11 15 1023.0 1023.1 0.0
30/05:00pm 12.1 6.9 2.4 51 4.2 NW 19 24 10 13 1023.0 1023.1 0.0
30/04:30pm 12.3 8.3 3.0 53 4.1 NW 13 22 7 12 1022.9 1023.0 0.0
30/04:00pm 12.9 8.2 2.9 50 4.4 NW 17 26 9 14 1022.7 1022.8 0.0
30/03:30pm 13.4 7.3 3.0 49 4.6 NNW 24 35 13 19 1022.5 1022.6 0.0
30/03:00pm 13.3 8.2 4.0 53 4.2 NNW 20 28 11 15 1022.6 1022.7 0.0
30/02:30pm 13.3 8.2 4.3 54 4.1 NNW 20 30 11 16 1022.5 1022.6 0.0
30/02:00pm 13.5 8.4 4.3 53 4.2 NNW 20 28 11 15 1022.8 1022.9 0.0
30/01:30pm 13.9 9.7 4.0 51 4.5 NNW 15 24 8 13 1023.0 1023.1 0.0
30/01:00pm 13.7 8.8 4.0 52 4.4 NNW 19 28 10 15 1023.2 1023.3 0.0
30/12:30pm 13.4 8.8 3.9 52 4.3 NNW 17 28 9 15 1023.3 1023.4 0.0
30/12:00pm 12.7 7.8 4.0 55 3.9 NNW 19 26 10 14 1023.6 1023.7 0.0
30/11:30am 12.4 7.8 3.6 55 3.9 NNW 17 24 9 13 1024.0 1024.1 0.0
30/11:00am 12.2 7.6 3.7 56 3.8 NNW 17 26 9 14 1024.6 1024.7 0.0
30/10:30am 11.8 8.0 3.7 57 3.6 NW 13 22 7 12 1024.7 1024.8 0.0
30/10:00am 10.8 9.0 3.5 60 3.2 WNW 2 7 1 4 1024.8 1024.9 0.0
30/09:30am 9.2 6.6 3.1 65 2.6 SW 6 9 3 5 1024.9 1025.0 0.0
30/09:00am 7.5 4.3 3.0 73 1.9 NW 9 17 5 9 1024.9 1025.0 0.0
30/08:30am 6.6 3.9 2.7 76 1.6 WNW 6 19 3 10 1024.7 1024.8 0.0
30/08:00am 5.8 3.1 2.6 80 1.3 WSW 6 11 3 6 1024.5 1024.6 0.0
30/07:30am 6.5 3.6 2.6 76 1.6 W 7 13 4 7 1024.3 1024.4 0.0
30/07:00am 7.1 3.8 2.5 72 1.9 NNW 9 17 5 9 1024.1 1024.2 0.0
30/06:30am 7.5 3.9 2.7 71 2.0 WNW 11 17 6 9 1023.8 1023.9 0.0
30/06:00am 7.5 3.8 2.4 70 2.1 WNW 11 19 6 10 1023.3 1023.4 0.0
30/05:30am 8.8 4.4 2.6 65 2.6 WNW 15 22 8 12 1023.2 1023.3 0.0
30/05:00am 8.8 5.6 2.9 66 2.5 NW 9 19 5 10 1023.0 1023.1 0.0
30/04:30am 8.6 4.2 2.9 67 2.4 NW 15 28 8 15 1023.0 1023.1 0.0
30/04:00am 8.4 5.1 2.7 67 2.4 WSW 9 22 5 12 1023.1 1023.2 0.0
30/03:30am 8.7 4.0 3.1 68 2.4 WNW 17 28 9 15 1023.2 1023.3 0.0
30/03:00am 8.1 4.1 3.1 71 2.1 WNW 13 24 7 13 1023.4 1023.5 0.0
30/02:30am 8.3 5.1 3.1 70 2.2 NW 9 20 5 11 1023.4 1023.5 0.0
30/02:00am 8.3 5.4 2.8 68 2.3 SW 7 17 4 9 1023.5 1023.6 0.0
30/01:30am 9.8 5.1 3.0 62 2.9 NW 17 32 9 17 1023.3 1023.4 0.0
30/01:00am 9.8 5.0 2.8 61 3.0 NW 17 30 9 16 1023.2 1023.3 0.0
30/12:30am 8.4 4.4 2.7 67 2.4 SW 13 28 7 15 1023.6 1023.7 0.0
30/12:00am 9.4 4.2 2.5 62 2.9 WNW 19 32 10 17 1023.7 1023.8 0.0
 
Date/Time
EST
Temp
°C
App
Temp
°C
Dew
Point
Rel
Hum
%
Delta-T
°C
Wind Press
QNH
hPa
Press
MSL
hPa
Rain
since 9 am
mm
Dir
 
Spd
km/h
Gust
km/h
Spd
kts
Gust
kts
29/11:30pm 9.9 7.1 2.9 62 3.0 W 7 20 4 11 1023.7 1023.8 0.0
29/11:00pm 9.0 5.8 2.9 65 2.6 NNW 9 26 5 14 1023.8 1023.9 0.0
29/10:30pm 8.9 6.3 3.3 68 2.4 WNW 6 15 3 8 1023.7 1023.8 0.0
29/10:00pm 10.0 6.4 3.0 62 3.0 NNW 11 26 6 14 1023.7 1023.8 0.0
29/09:30pm 10.2 7.4 3.3 62 3.0 N 7 17 4 9 1023.6 1023.7 0.0
29/09:00pm 11.3 8.4 2.7 55 3.7 NE 7 17 4 9 1023.8 1023.9 0.0
29/08:41pm 12.4 6.1 1.6 47 4.6 WNW 24 52 13 28 1023.8 1023.9 0.0
29/08:30pm 12.5 3.7 1.4 46 4.7 WNW 37 56 20 30 1023.4 1023.5 0.0
29/08:00pm 12.3 2.3 2.1 49 4.4 WNW 44 63 24 34 1023.4 1023.5 0.0
29/07:33pm 11.5 2.4 4.1 60 3.3 NW 41 59 22 32 1023.5 1023.6 0.0
29/07:30pm 11.6 2.9 4.0 59 3.4 NW 39 56 21 30 1023.5 1023.6 0.0
29/07:05pm 12.0 2.5 3.9 57 3.6 NW 43 61 23 33 1023.5 1023.6 0.0
29/07:00pm 12.1 2.4 4.1 58 3.6 NW 44 61 24 33 1023.4 1023.5 0.0
29/06:30pm 12.3 3.2 4.1 57 3.7 NW 41 61 22 33 1023.4 1023.5 0.0
29/06:10pm 12.3 3.6 4.1 57 3.7 NW 39 65 21 35 1023.5 1023.6 0.0
29/06:00pm 12.5 3.4 4.1 56 3.8 NW 41 57 22 31 1023.6 1023.7 0.0
29/05:31pm 12.6 3.9 3.9 55 3.9 NW 39 61 21 33 1023.5 1023.6 0.0
29/05:30pm 12.6 3.9 3.9 55 3.9 NW 39 54 21 29 1023.5 1023.6 0.0
29/05:00pm 12.8 5.8 4.2 56 3.9 NW 30 48 16 26 1023.4 1023.5 0.0
29/04:30pm 13.4 5.1 4.4 54 4.1 NW 37 56 20 30 1023.3 1023.4 0.0
29/04:28pm 13.4 5.1 4.4 54 4.1 NW 37 56 20 30 1023.2 1023.3 0.0
29/04:00pm 14.0 5.6 3.9 50 4.6 NNW 37 52 20 28 1023.4 1023.5 0.0
29/03:30pm 14.4 6.7 3.6 48 4.9 NNW 33 46 18 25 1023.4 1023.5 0.0
29/03:00pm 15.2 8.4 3.0 44 5.5 NNW 28 41 15 22 1023.3 1023.4 0.0
29/02:30pm 15.0 7.4 2.7 43 5.5 NW 32 50 17 27 1023.3 1023.4 0.0
29/02:23pm 15.0 8.1 2.7 43 5.5 NW 28 50 15 27 1023.1 1023.2 0.0
29/02:00pm 15.6 7.9 2.4 41 5.9 NNW 32 48 17 26 1023.3 1023.4 0.0
29/01:30pm 15.7 8.1 2.8 42 5.8 NW 32 50 17 27 1023.2 1023.3 0.0
29/01:00pm 15.8 7.7 3.0 42 5.8 NW 35 54 19 29 1023.3 1023.4 0.0
29/12:55pm 15.6 7.5 3.3 43 5.6 NW 35 54 19 29 1023.2 1023.3 0.0
29/12:30pm 15.5 7.4 3.1 43 5.6 NNW 35 48 19 26 1023.4 1023.5 0.0
29/12:00pm 15.7 11.9 3.7 44 5.5 NNW 13 35 7 19 1023.6 1023.7 0.0
29/11:30am 14.6 10.5 4.1 49 4.8 SE 15 24 8 13 1024.0 1024.1 0.0
29/11:00am 14.2 10.9 4.4 51 4.5 ESE 11 19 6 10 1024.6 1024.7 0.0
29/10:30am 13.8 10.5 4.4 53 4.3 ESE 11 17 6 9 1025.1 1025.2 0.0
29/10:00am 14.1 9.2 4.0 50 4.6 NW 19 33 10 18 1025.0 1025.1 0.0
29/09:30am 12.8 7.8 4.7 58 3.7 NNW 20 35 11 19 1024.8 1024.9 0.0
29/09:13am 12.6 6.1 4.5 58 3.7 NNW 28 46 15 25 1024.9 1025.0 0.0
29/09:00am 12.5 4.6 4.6 58 3.6 NNW 35 46 19 25 1024.6 1024.7 0.0
29/08:46am 12.4 5.8 4.2 57 3.7 NNW 28 48 15 26 1024.6 1024.7 0.0
29/08:30am 12.0 4.7 4.7 61 3.3 NNW 32 44 17 24 1024.7 1024.8 0.0
29/08:00am 11.8 4.6 4.8 62 3.2 NNW 32 43 17 23 1024.5 1024.6 0.0
29/07:39am 11.7 5.2 4.9 63 3.1 NNW 28 46 15 25 1024.5 1024.6 0.0
29/07:30am 11.7 5.6 4.9 63 3.1 NNW 26 35 14 19 1024.7 1024.8 0.0
29/07:00am 11.6 6.6 4.8 63 3.1 N 20 32 11 17 1024.8 1024.9 0.0
29/06:30am 11.7 6.7 4.4 61 3.3 N 20 30 11 16 1024.5 1024.6 0.0
29/06:00am 11.8 7.4 4.5 61 3.3 NNE 17 26 9 14 1024.1 1024.2 0.0
29/05:30am 12.5 6.9 3.5 54 4.0 N 22 33 12 18 1023.8 1023.9 0.0
29/05:00am 12.4 7.2 3.4 54 4.0 NNW 20 32 11 17 1023.7 1023.8 0.0
29/04:30am 12.3 7.1 3.5 55 3.9 N 20 28 11 15 1023.7 1023.8 0.0
29/04:00am 12.2 6.8 4.5 59 3.5 N 22 32 12 17 1023.5 1023.6 0.0
29/03:31am 12.5 5.8 3.8 55 3.9 NNW 28 46 15 25 1023.4 1023.5 0.0
29/03:30am 12.5 6.2 3.8 55 3.9 NNW 26 46 14 25 1023.3 1023.4 0.0
29/03:00am 12.2 7.0 3.7 56 3.8 NNW 20 35 11 19 1023.5 1023.6 0.0
29/02:30am 12.4 7.4 3.4 54 4.0 NNW 19 32 10 17 1023.4 1023.5 0.0
29/02:00am 12.5 6.9 3.2 53 4.1 NNW 22 35 12 19 1023.5 1023.6 0.0
29/01:30am 12.5 7.4 2.9 52 4.2 NNW 19 32 10 17 1023.4 1023.5 0.0
29/01:00am 12.4 7.9 4.2 57 3.7 NNW 17 24 9 13 1023.6 1023.7 0.0
29/12:30am 12.2 8.2 4.7 60 3.4 NW 15 26 8 14 1023.5 1023.6 0.0
29/12:00am 12.4 8.0 4.7 59 3.5 NW 17 24 9 13 1023.6 1023.7 0.0
 
Date/Time
EST
Temp
°C
App
Temp
°C
Dew
Point
Rel
Hum
%
Delta-T
°C
Wind Press
QNH
hPa
Press
MSL
hPa
Rain
since 9 am
mm
Dir
 
Spd
km/h
Gust
km/h
Spd
kts
Gust
kts
28/11:30pm 13.0 7.2 4.2 55 4.0 NW 24 39 13 21 1023.5 1023.6 0.0

Other Formats:

Comma delimited format used in spreadsheet applications
http://www.bom.gov.au/fwo/IDT60801/IDT60801.94970.axf

JavaScript Object Notation format (JSON) in row-major order
http://www.bom.gov.au/fwo/IDT60801/IDT60801.94970.json